Time;durP1;ratioP1;P1;durP2;ratioP2;P2;SDS_P1;SDS_P2;PMS_P1;PMS_P2;Temp;Humidity;BMP_temperature;BMP_pressure;BME280_temperature;BME280_humidity;BME280_pressure;Samples;Min_cycle;Max_cycle;Signal;HPM_P1;HPM_P2
2022/05/02 00:01:20;;;;;;;11.27;7.57;;;3.20;99.90;;;;;;5058760;28;20032;-77
2022/05/02 00:03:46;;;;;;;15.05;8.88;;;3.10;99.90;;;;;;5058047;28;20680;-77
2022/05/02 00:06:12;;;;;;;14.15;8.55;;;3.10;99.90;;;;;;5058780;28;20025;-77
2022/05/02 00:08:37;;;;;;;14.85;8.75;;;3.00;99.90;;;;;;5059290;28;20036;-77
2022/05/02 00:11:03;;;;;;;13.98;8.90;;;3.00;99.90;;;;;;5060774;28;20388;-77
2022/05/02 00:13:29;;;;;;;14.60;8.88;;;2.90;99.90;;;;;;5059605;28;20051;-77
2022/05/02 00:15:54;;;;;;;15.30;8.98;;;2.90;99.90;;;;;;5057385;28;20052;-77
2022/05/02 00:18:20;;;;;;;13.18;8.75;;;2.80;99.90;;;;;;5058350;28;20029;-77
2022/05/02 00:20:46;;;;;;;19.75;8.80;;;2.80;99.90;;;;;;5042152;28;20181;-77
2022/05/02 00:23:12;;;;;;;15.10;9.32;;;2.80;99.90;;;;;;5039326;28;20029;-76
2022/05/02 00:25:38;;;;;;;16.08;9.27;;;2.80;99.90;;;;;;5021818;28;20025;-77
2022/05/02 00:28:05;;;;;;;16.85;9.35;;;2.90;99.90;;;;;;5058526;28;20082;-77
2022/05/02 00:30:31;;;;;;;17.00;9.38;;;2.90;99.90;;;;;;5057871;28;20107;-76
2022/05/02 00:32:57;;;;;;;15.25;9.27;;;2.90;99.90;;;;;;5060282;28;20315;-77
2022/05/02 00:35:23;;;;;;;15.95;9.23;;;2.90;99.90;;;;;;5061547;28;20456;-77
2022/05/02 00:37:49;;;;;;;15.18;9.70;;;2.80;99.90;;;;;;5062493;28;20111;-77
2022/05/02 00:40:17;;;;;;;14.95;9.10;;;2.80;99.90;;;;;;5063144;28;20064;-76
2022/05/02 00:42:44;;;;;;;14.93;9.65;;;2.70;99.90;;;;;;5063585;28;20357;-77
2022/05/02 00:45:11;;;;;;;13.32;8.70;;;2.60;99.90;;;;;;5063139;28;20467;-76
2022/05/02 00:47:37;;;;;;;15.23;9.77;;;2.60;99.90;;;;;;5063087;28;20037;-77
2022/05/02 00:50:07;;;;;;;18.00;9.85;;;2.50;99.90;;;;;;5064558;28;20037;-77
2022/05/02 00:52:32;;;;;;;16.10;9.25;;;2.50;99.90;;;;;;5064710;28;20021;-77
2022/05/02 00:55:00;;;;;;;17.10;10.32;;;2.60;99.90;;;;;;5065134;28;20112;-77
2022/05/02 00:57:26;;;;;;;17.70;9.80;;;2.50;99.90;;;;;;5063367;28;20433;-76
2022/05/02 00:59:51;;;;;;;16.02;9.10;;;2.40;99.90;;;;;;5063216;28;20040;-76
2022/05/02 01:02:17;;;;;;;13.52;8.63;;;2.40;99.90;;;;;;5064204;28;20025;-76
2022/05/02 01:04:43;;;;;;;12.45;8.27;;;2.40;99.90;;;;;;5064295;28;20025;-77
2022/05/02 01:07:12;;;;;;;14.38;8.27;;;2.40;99.90;;;;;;5063569;28;20468;-77
2022/05/02 01:09:44;;;;;;;11.65;8.32;;;2.40;99.90;;;;;;5065036;28;20029;-77
2022/05/02 01:12:15;;;;;;;14.20;8.75;;;2.40;99.90;;;;;;5064321;28;20056;-76
2022/05/02 01:14:46;;;;;;;17.52;8.93;;;2.40;99.90;;;;;;5062426;22;20049;-79
2022/05/02 01:17:11;;;;;;;14.63;9.40;;;2.40;99.90;;;;;;5056697;28;20017;-79
2022/05/02 01:19:37;;;;;;;16.83;9.43;;;2.40;99.90;;;;;;5056135;28;20028;-79
2022/05/02 01:22:04;;;;;;;16.50;9.40;;;2.50;99.90;;;;;;5056146;28;20077;-79
2022/05/02 01:24:49;;;;;;;16.00;8.77;;;2.50;99.90;;;;;;5056055;28;20455;-79
2022/05/02 01:27:15;;;;;;;15.68;10.07;;;2.40;99.90;;;;;;5056167;28;20079;-79
2022/05/02 01:29:43;;;;;;;17.48;9.73;;;2.50;99.90;;;;;;5055919;28;20148;-79
2022/05/02 01:32:13;;;;;;;17.80;10.15;;;2.50;99.90;;;;;;5055921;28;20048;-79
2022/05/02 01:34:40;;;;;;;23.25;9.93;;;2.40;99.90;;;;;;5056056;28;20027;-79
2022/05/02 01:37:10;;;;;;;16.52;9.98;;;2.50;99.90;;;;;;5055857;28;20017;-80
2022/05/02 01:39:37;;;;;;;14.80;9.65;;;2.50;1.00;;;;;;5055771;28;20037;-79
2022/05/02 01:42:05;;;;;;;15.32;9.27;;;2.40;1.00;;;;;;5055832;28;20435;-80
2022/05/02 01:44:31;;;;;;;15.52;9.63;;;2.30;1.00;;;;;;5055112;28;20487;-79
2022/05/02 01:46:57;;;;;;;21.92;10.65;;;2.30;1.00;;;;;;5055708;28;20087;-80
2022/05/02 01:56:06;;;;;;;14.45;8.68;;;2.60;1.00;;;;;;5055900;28;20059;-80
2022/05/02 01:59:11;;;;;;;18.45;10.23;;;2.80;10.60;;;;;;5053363;28;20061;-79
2022/05/02 02:01:37;;;;;;;15.68;9.63;;;2.90;56.40;;;;;;5016000;28;20108;-78
2022/05/02 02:10:11;;;;;;;18.85;9.40;;;2.40;68.50;;;;;;5015876;28;20592;-78
2022/05/02 02:12:37;;;;;;;17.17;9.30;;;2.50;75.50;;;;;;5018500;28;20064;-78
2022/05/02 02:15:02;;;;;;;16.05;9.13;;;2.40;90.40;;;;;;5034972;28;20131;-79
2022/05/02 02:17:28;;;;;;;18.00;9.90;;;2.50;91.30;;;;;;5035178;28;20101;-78
2022/05/02 02:19:53;;;;;;;15.05;8.60;;;2.50;99.40;;;;;;5033687;28;20160;-78
2022/05/02 02:22:19;;;;;;;14.98;9.05;;;2.40;99.90;;;;;;5035155;28;20061;-77
2022/05/02 02:24:46;;;;;;;17.67;8.93;;;2.40;99.90;;;;;;5035073;28;20094;-78
2022/05/02 02:27:12;;;;;;;13.57;8.82;;;2.30;99.90;;;;;;5034997;28;20497;-78
2022/05/02 02:29:37;;;;;;;14.88;8.60;;;2.30;99.90;;;;;;5034937;28;20030;-78
2022/05/02 02:32:04;;;;;;;15.13;9.10;;;2.30;99.90;;;;;;5034835;28;20032;-78
2022/05/02 02:34:29;;;;;;;14.98;8.35;;;2.20;99.90;;;;;;5035201;28;20445;-78
2022/05/02 02:36:55;;;;;;;14.95;8.15;;;2.10;99.90;;;;;;5034868;28;20032;-78
2022/05/02 02:39:20;;;;;;;13.20;8.13;;;2.10;99.90;;;;;;5034577;28;20029;-78
2022/05/02 02:41:46;;;;;;;15.20;8.07;;;2.00;99.90;;;;;;5016930;28;20026;-78
2022/05/02 02:44:13;;;;;;;14.02;8.70;;;2.00;99.90;;;;;;5034323;28;20389;-78
2022/05/02 02:46:38;;;;;;;17.42;9.15;;;2.00;99.90;;;;;;5027884;28;20061;-79
2022/05/02 02:49:04;;;;;;;14.15;8.00;;;2.10;99.90;;;;;;5034502;28;20033;-78
2022/05/02 02:54:51;;;;;;;14.18;8.48;;;2.10;99.90;;;;;;5034203;28;20024;-78
2022/05/02 02:57:16;;;;;;;14.98;8.63;;;2.30;99.90;;;;;;5034214;28;20029;-78
2022/05/02 02:59:42;;;;;;;18.17;8.80;;;2.30;99.90;;;;;;5034436;28;20396;-78
2022/05/02 03:02:08;;;;;;;16.50;8.95;;;2.20;99.90;;;;;;5034334;28;20025;-78
2022/05/02 03:07:20;;;;;;;16.20;8.63;;;2.20;99.90;;;;;;5034771;28;20468;-78
2022/05/02 03:09:45;;;;;;;13.82;8.13;;;2.10;99.90;;;;;;5034131;28;20026;-78
2022/05/02 03:12:12;;;;;;;14.90;8.63;;;2.10;99.90;;;;;;5034061;28;20508;-78
2022/05/02 03:14:37;;;;;;;16.70;9.18;;;2.20;99.90;;;;;;5033776;28;20056;-78
2022/05/02 03:17:04;;;;;;;15.07;10.00;;;2.30;99.90;;;;;;5034071;28;20022;-78
2022/05/02 03:19:29;;;;;;;14.38;8.32;;;2.40;99.90;;;;;;5033887;28;20029;-78
2022/05/02 03:21:55;;;;;;;16.83;9.48;;;2.50;99.90;;;;;;5034002;28;20030;-77
2022/05/02 03:27:42;;;;;;;15.88;8.50;;;2.40;99.90;;;;;;5014506;28;20080;-78
2022/05/02 03:30:08;;;;;;;15.82;9.15;;;2.30;99.90;;;;;;5014305;28;20030;-78
2022/05/02 03:32:34;;;;;;;14.07;8.48;;;2.20;99.90;;;;;;5014070;28;20025;-78
2022/05/02 03:35:45;;;;;;;16.65;9.23;;;2.10;99.90;;;;;;5031766;28;20370;-78
2022/05/02 03:38:11;;;;;;;13.80;8.30;;;2.00;99.90;;;;;;5033582;28;20116;-78
2022/05/02 03:40:36;;;;;;;12.43;7.63;;;2.00;99.90;;;;;;5033636;28;20108;-78
2022/05/02 03:43:02;;;;;;;14.23;8.40;;;2.10;99.90;;;;;;5033598;28;20420;-78
2022/05/02 03:45:27;;;;;;;12.93;7.78;;;2.20;99.90;;;;;;5033305;28;20029;-78
2022/05/02 03:47:53;;;;;;;14.38;7.57;;;2.20;99.90;;;;;;5033648;28;20017;-78
2022/05/02 03:50:18;;;;;;;12.98;7.13;;;2.10;99.90;;;;;;5033342;28;20014;-79
2022/05/02 03:52:44;;;;;;;11.93;7.80;;;2.00;99.90;;;;;;5033501;28;20018;-79
2022/05/02 03:55:10;;;;;;;13.00;7.13;;;2.00;99.90;;;;;;5033623;28;20031;-79
2022/05/02 03:57:36;;;;;;;9.88;6.50;;;2.10;99.90;;;;;;5027367;28;20079;-80
2022/05/02 04:00:02;;;;;;;12.45;7.05;;;2.00;99.90;;;;;;4996014;28;20030;-80
2022/05/02 04:02:28;;;;;;;9.48;6.85;;;1.90;99.90;;;;;;5013995;28;20026;-79
2022/05/02 04:04:53;;;;;;;13.52;8.07;;;1.90;99.90;;;;;;5013609;28;20026;-78
2022/05/02 04:07:19;;;;;;;13.30;8.20;;;2.00;99.90;;;;;;5013470;28;20113;-78
2022/05/02 04:09:44;;;;;;;15.50;8.98;;;2.00;99.90;;;;;;5013664;28;20030;-78
2022/05/02 04:12:10;;;;;;;17.63;9.98;;;2.10;99.90;;;;;;5013777;28;20172;-79
2022/05/02 04:14:36;;;;;;;17.90;9.38;;;2.40;99.90;;;;;;5011983;28;20050;-79
2022/05/02 04:17:01;;;;;;;15.27;9.40;;;2.50;99.90;;;;;;5013627;28;20018;-79
2022/05/02 04:19:27;;;;;;;18.90;9.50;;;2.60;99.90;;;;;;5012282;28;20026;-78
2022/05/02 04:21:53;;;;;;;16.25;9.88;;;2.60;99.90;;;;;;5013604;28;20026;-78
2022/05/02 04:24:19;;;;;;;13.98;8.65;;;2.60;99.90;;;;;;5013871;28;20022;-78
2022/05/02 04:26:44;;;;;;;15.57;9.32;;;2.80;99.90;;;;;;5013634;28;20033;-79
2022/05/02 04:29:10;;;;;;;17.20;9.50;;;2.80;99.90;;;;;;5013454;28;20034;-79
2022/05/02 04:31:35;;;;;;;14.82;9.10;;;2.80;99.90;;;;;;5013699;28;20026;-79
2022/05/02 04:34:01;;;;;;;18.90;9.35;;;2.90;99.90;;;;;;5013492;28;20456;-79
2022/05/02 04:36:26;;;;;;;15.88;9.20;;;2.90;99.90;;;;;;5013737;28;20026;-78
2022/05/02 04:38:52;;;;;;;13.00;8.25;;;2.90;99.90;;;;;;5013278;28;20057;-78
2022/05/02 04:41:18;;;;;;;17.38;9.82;;;2.90;99.90;;;;;;5024654;28;20382;-79
2022/05/02 04:43:43;;;;;;;14.63;9.20;;;3.10;99.90;;;;;;5033021;28;20021;-78
2022/05/02 04:46:09;;;;;;;17.00;9.75;;;3.10;99.90;;;;;;5033063;28;20026;-78
2022/05/02 04:48:35;;;;;;;15.63;9.68;;;3.20;99.90;;;;;;5032991;28;20072;-78
2022/05/02 04:51:00;;;;;;;14.07;8.60;;;3.20;99.90;;;;;;5033043;28;20060;-78
2022/05/02 04:53:26;;;;;;;15.32;8.90;;;3.40;99.90;;;;;;5033020;28;20083;-78
2022/05/02 04:55:52;;;;;;;16.73;9.52;;;3.50;99.90;;;;;;5033234;28;20037;-78
2022/05/02 04:58:17;;;;;;;24.40;10.55;;;3.60;99.90;;;;;;5033065;28;20114;-78
2022/05/02 05:00:43;;;;;;;19.35;11.35;;;3.70;99.90;;;;;;5031702;28;20025;-78
2022/05/02 05:03:09;;;;;;;18.48;10.15;;;3.80;99.90;;;;;;5032808;28;20067;-78
2022/05/02 05:05:34;;;;;;;17.83;11.18;;;3.90;99.90;;;;;;5032764;28;20026;-78
2022/05/02 05:08:00;;;;;;;16.98;10.15;;;4.00;99.90;;;;;;5032881;28;20025;-78
2022/05/02 05:10:26;;;;;;;19.27;10.80;;;4.10;99.90;;;;;;5032882;28;20097;-77
2022/05/02 05:13:01;;;;;;;17.83;10.70;;;4.10;99.90;;;;;;5029850;28;20433;-79
2022/05/02 05:18:53;;;;;;;28.08;12.77;;;5.00;99.90;;;;;;5019985;28;20063;-78
2022/05/02 05:21:32;;;;;;;25.98;13.50;;;8.70;99.90;;;;;;5038239;28;20151;-77
2022/05/02 05:24:34;;;;;;;26.27;14.07;;;10.90;99.90;;;;;;5061137;28;20048;-78
2022/05/02 05:34:27;;;;;;;22.52;13.45;;;15.10;1.00;;;;;;5036327;28;20024;-78
2022/05/02 05:40:30;;;;;;;17.38;10.73;;;17.60;99.90;;;;;;5038064;28;20056;-81
2022/05/02 05:43:04;;;;;;;12.75;9.15;;;19.70;99.90;;;;;;5050177;28;20492;-81
2022/05/02 05:45:38;;;;;;;11.90;8.95;;;20.30;99.90;;;;;;5051837;28;20026;-81
2022/05/02 05:48:23;;;;;;;12.60;8.73;;;20.90;99.90;;;;;;5047634;28;20323;-81
2022/05/02 05:51:07;;;;;;;11.48;7.95;;;20.50;99.90;;;;;;5063823;28;20013;-81
2022/05/02 05:53:46;;;;;;;11.55;8.40;;;21.60;99.90;;;;;;5062092;28;20032;-81
2022/05/02 05:56:47;;;;;;;11.50;8.30;;;20.50;99.90;;;;;;5055041;28;20508;-81
2022/05/02 05:59:43;;;;;;;9.13;7.57;;;21.40;99.90;;;;;;5045281;28;20289;-81
2022/05/02 06:02:19;;;;;;;9.93;7.38;;;20.10;99.90;;;;;;5014900;28;20030;-83
2022/05/02 06:04:49;;;;;;;8.45;7.53;;;21.10;99.90;;;;;;5052575;28;20033;-83
2022/05/02 06:07:17;;;;;;;;;;;21.90;99.90;;;;;;5048292;28;20036;-83
2022/05/02 06:09:43;;;;;;;8.85;7.03;;;21.20;99.90;;;;;;5031216;28;19952;-83
2022/05/02 06:12:12;;;;;;;10.43;7.82;;;20.70;99.90;;;;;;5044868;28;20032;-83
2022/05/02 06:20:14;;;;;;;8.15;7.07;;;17.60;99.90;;;;;;5016881;28;20078;-82
2022/05/02 06:22:40;;;;;;;10.90;8.05;;;13.90;99.90;;;;;;4997269;28;20022;-82
2022/05/02 06:25:10;;;;;;;8.70;7.15;;;17.30;99.90;;;;;;4995889;28;20481;-82
2022/05/02 06:27:39;;;;;;;9.00;7.47;;;19.90;99.90;;;;;;4998585;28;20022;-82
2022/05/02 06:30:05;;;;;;;10.40;7.72;;;18.30;99.90;;;;;;4999576;28;20274;-84
2022/05/02 06:32:35;;;;;;;8.18;6.70;;;19.00;99.90;;;;;;4998246;28;20026;-82
2022/05/02 06:35:00;;;;;;;7.80;6.93;;;18.60;99.90;;;;;;4979234;28;20385;-81
2022/05/02 06:37:31;;;;;;;8.88;7.45;;;22.40;99.90;;;;;;4996242;28;20045;-82
2022/05/02 06:40:12;;;;;;;9.82;7.55;;;21.80;99.90;;;;;;5016157;28;20026;-82
2022/05/02 06:42:56;;;;;;;;;;;21.60;99.90;;;;;;4998805;28;20091;-82
2022/05/02 06:45:35;;;;;;;7.75;6.78;;;21.10;99.90;;;;;;5013533;28;19924;-82
2022/05/02 06:48:26;;;;;;;8.57;7.00;;;23.00;99.90;;;;;;5013361;28;20031;-82
2022/05/02 06:50:57;;;;;;;9.23;7.25;;;25.60;99.90;;;;;;5002320;28;20298;-82
2022/05/02 06:54:11;;;;;;;8.75;7.15;;;26.30;99.90;;;;;;5016826;28;20030;-81
2022/05/02 06:56:45;;;;;;;7.88;6.85;;;26.30;99.90;;;;;;5017612;28;20060;-82
2022/05/02 06:59:23;;;;;;;6.95;6.25;;;26.20;99.90;;;;;;4996647;28;20038;-82
2022/05/02 07:01:57;;;;;;;8.18;6.55;;;26.00;99.90;;;;;;5012494;28;20091;-82
2022/05/02 07:04:44;;;;;;;7.57;6.07;;;27.00;99.90;;;;;;5012669;28;20383;-82
2022/05/02 07:07:19;;;;;;;6.55;5.88;;;27.70;99.90;;;;;;5006430;28;20018;-83
2022/05/02 07:10:10;;;;;;;6.63;6.00;;;26.60;99.90;;;;;;5012780;28;20364;-82
2022/05/02 07:12:49;;;;;;;6.05;5.45;;;27.60;99.90;;;;;;4979024;28;20041;-83
2022/05/02 07:15:27;;;;;;;6.05;5.45;;;24.40;99.90;;;;;;5011478;28;20050;-82
2022/05/02 07:18:06;;;;;;;7.22;6.18;;;25.20;99.90;;;;;;5005022;28;20025;-82
2022/05/02 07:21:01;;;;;;;6.72;6.07;;;26.60;99.90;;;;;;4995961;28;20474;-82
2022/05/02 07:23:54;;;;;;;6.70;5.85;;;24.90;99.90;;;;;;4997998;28;20386;-80
2022/05/02 07:26:21;;;;;;;7.03;5.63;;;27.60;99.90;;;;;;5011329;28;20033;-80
2022/05/02 07:28:48;;;;;;;7.43;4.97;;;28.50;99.90;;;;;;5015544;28;20120;-83
2022/05/02 07:31:22;;;;;;;6.60;5.10;;;29.20;99.90;;;;;;5014749;28;20033;-80
2022/05/02 07:33:51;;;;;;;6.57;5.43;;;29.30;99.90;;;;;;5012358;28;20477;-80
2022/05/02 07:36:19;;;;;;;5.70;5.03;;;26.70;99.90;;;;;;4995108;28;20061;-80
2022/05/02 07:38:47;;;;;;;5.88;5.32;;;26.70;99.90;;;;;;5014520;28;20025;-83
2022/05/02 07:41:24;;;;;;;6.15;5.18;;;27.30;99.90;;;;;;5015383;28;20018;-78
2022/05/02 07:44:03;;;;;;;6.68;5.38;;;28.30;99.90;;;;;;5014674;28;20058;-78
2022/05/02 07:46:34;;;;;;;5.65;4.45;;;27.70;99.90;;;;;;5014499;28;20030;-78
2022/05/02 07:49:02;;;;;;;5.15;4.65;;;27.80;99.90;;;;;;4981749;28;20026;-78
2022/05/02 07:51:29;;;;;;;7.13;4.95;;;28.90;99.90;;;;;;5012585;28;20037;-78
2022/05/02 07:53:58;;;;;;;5.68;5.15;;;28.60;99.90;;;;;;4996200;28;20105;-78
2022/05/02 07:56:27;;;;;;;6.10;5.28;;;28.20;99.90;;;;;;4992722;28;20026;-78
2022/05/02 07:58:54;;;;;;;6.93;5.45;;;28.90;99.90;;;;;;4991682;28;20039;-78
2022/05/02 08:01:21;;;;;;;7.47;5.70;;;30.70;99.90;;;;;;4991439;28;20022;-79
2022/05/02 08:03:47;;;;;;;6.35;5.75;;;29.70;99.90;;;;;;4992164;28;20524;-78
2022/05/02 08:06:28;;;;;;;7.05;5.22;;;29.80;99.90;;;;;;4992154;28;20537;-79
2022/05/02 08:09:25;;;;;;;5.70;5.20;;;28.60;99.90;;;;;;4992025;28;20026;-78
2022/05/02 08:11:56;;;;;;;6.78;5.47;;;29.50;99.90;;;;;;4992052;28;20030;-78
2022/05/02 08:14:32;;;;;;;6.72;5.60;;;32.50;99.90;;;;;;4999516;28;20100;-79
2022/05/02 08:17:03;;;;;;;5.72;5.10;;;32.00;99.90;;;;;;5011574;28;20026;-79
2022/05/02 08:19:45;;;;;;;6.40;5.00;;;31.20;99.90;;;;;;5011569;28;20030;-78
2022/05/02 08:28:51;;;;;;;6.70;4.95;;;31.20;99.90;;;;;;5011466;28;20060;-78
2022/05/02 08:31:30;;;;;;;6.18;5.57;;;31.90;99.90;;;;;;5011801;28;20044;-78
2022/05/02 08:34:10;;;;;;;6.10;5.38;;;29.30;99.90;;;;;;5011599;28;20477;-78
2022/05/02 08:36:53;;;;;;;6.00;5.25;;;31.10;99.90;;;;;;4993662;28;20109;-78
2022/05/02 08:39:28;;;;;;;6.60;4.97;;;31.40;99.90;;;;;;5013462;28;20496;-78
2022/05/02 08:42:05;;;;;;;7.32;5.68;;;33.40;99.90;;;;;;5030954;28;20021;-79
2022/05/02 08:44:47;;;;;;;5.45;4.72;;;32.50;99.90;;;;;;5031276;28;20041;-78
2022/05/02 08:47:53;;;;;;;6.22;5.43;;;32.60;99.90;;;;;;5031466;28;20030;-78
2022/05/02 08:50:42;;;;;;;8.43;5.95;;;32.80;99.90;;;;;;5037163;28;20439;-78
2022/05/02 08:53:32;;;;;;;6.72;5.35;;;34.10;99.90;;;;;;5051101;28;20040;-78
2022/05/02 08:56:21;;;;;;;7.57;5.93;;;33.60;99.90;;;;;;5054863;28;20028;-78
2022/05/02 08:59:15;;;;;;;6.73;6.03;;;34.60;99.90;;;;;;5039066;28;20516;-78
2022/05/02 09:01:56;;;;;;;8.32;6.43;;;32.20;99.90;;;;;;5054653;28;20036;-78
2022/05/02 09:04:51;;;;;;;9.75;6.82;;;30.40;99.90;;;;;;5054475;28;20078;-78
2022/05/02 09:07:53;;;;;;;10.77;7.53;;;31.40;99.90;;;;;;5054728;28;20079;-78
2022/05/02 09:10:25;;;;;;;7.13;6.43;;;30.80;99.90;;;;;;5054554;28;20515;-78
2022/05/02 09:13:21;;;;;;;7.20;6.50;;;33.00;99.90;;;;;;5054399;28;20016;-78
2022/05/02 09:15:57;;;;;;;7.40;6.68;;;33.10;99.90;;;;;;5054380;28;20516;-78
2022/05/02 09:19:03;;;;;;;8.98;7.03;;;33.80;99.90;;;;;;5053133;28;20021;-78
2022/05/02 09:22:00;;;;;;;7.85;6.78;;;31.30;99.90;;;;;;5054782;28;20029;-77
2022/05/02 09:24:53;;;;;;;6.88;6.03;;;32.40;99.90;;;;;;5055033;28;20108;-78
2022/05/02 09:27:49;;;;;;;7.65;6.68;;;32.30;99.90;;;;;;5054208;28;20120;-78
2022/05/02 09:30:30;;;;;;;9.13;6.45;;;31.70;99.90;;;;;;5054198;28;20033;-78
2022/05/02 09:33:37;;;;;;;7.43;6.65;;;31.90;99.90;;;;;;5054379;28;20053;-78
2022/05/02 09:36:27;;;;;;;6.57;5.80;;;33.80;99.90;;;;;;4934299;29;20041;-78
2022/05/02 09:39:04;;;;;;;9.95;5.97;;;33.70;99.90;;;;;;4934178;29;20019;-78
2022/05/02 09:41:38;;;;;;;7.15;5.18;;;31.00;99.90;;;;;;5018985;28;20037;-78
2022/05/02 09:50:20;;;;;;;6.20;4.50;;;30.60;99.90;;;;;;5053821;28;20083;-78
2022/05/02 09:53:01;;;;;;;5.45;3.60;;;32.20;99.90;;;;;;5053624;28;20365;-78
2022/05/02 09:58:37;;;;;;;3.45;3.15;;;31.30;99.90;;;;;;5054503;28;20064;-79
2022/05/02 10:01:11;;;;;;;4.00;3.65;;;33.00;99.90;;;;;;5053863;28;20314;-78
2022/05/02 10:03:58;;;;;;;5.80;4.60;;;34.10;99.90;;;;;;5054475;28;20087;-78
2022/05/02 10:06:35;;;;;;;4.65;3.70;;;31.90;99.90;;;;;;5053798;28;20366;-78
2022/05/02 10:09:05;;;;;;;4.40;3.63;;;32.20;99.90;;;;;;5053354;28;20037;-78
2022/05/02 10:11:56;;;;;;;3.95;3.63;;;32.70;99.90;;;;;;5035805;28;20029;-78
2022/05/02 10:14:42;;;;;;;6.38;3.63;;;33.20;99.90;;;;;;5053317;28;20045;-79
2022/05/02 10:17:13;;;;;;;4.00;3.60;;;33.40;99.90;;;;;;5053374;28;20362;-78
2022/05/02 10:20:07;;;;;;;4.95;3.70;;;32.20;99.90;;;;;;5053661;28;20025;-78
2022/05/02 10:22:50;;;;;;;4.38;3.75;;;31.30;99.90;;;;;;5053414;28;20035;-77
2022/05/02 10:25:25;;;;;;;4.50;3.40;;;30.00;99.90;;;;;;5035155;28;20056;-78
2022/05/02 10:28:04;;;;;;;4.43;3.35;;;32.10;99.90;;;;;;5053026;28;20047;-77
2022/05/02 10:30:43;;;;;;;4.93;3.65;;;31.80;99.90;;;;;;5053338;28;20025;-78
2022/05/02 10:33:15;;;;;;;3.87;3.47;;;33.70;99.90;;;;;;5053134;28;20080;-77
2022/05/02 10:35:45;;;;;;;5.20;3.10;;;32.60;99.90;;;;;;5052937;28;20719;-78
2022/05/02 10:38:12;;;;;;;;;;;33.20;99.90;;;;;;5053480;28;20017;-78
2022/05/02 10:40:39;;;;;;;3.15;2.65;;;30.90;99.90;;;;;;5034624;28;20315;-78
2022/05/02 10:43:07;;;;;;;5.20;2.67;;;31.00;99.90;;;;;;5052711;28;20017;-78
2022/05/02 10:45:36;;;;;;;3.40;2.97;;;32.70;99.90;;;;;;5052647;28;20025;-78
2022/05/02 10:48:18;;;;;;;4.22;3.13;;;27.10;99.90;;;;;;5052978;28;20021;-77
2022/05/02 10:51:11;;;;;;;3.15;2.78;;;27.40;99.90;;;;;;5052724;28;20040;-78
2022/05/02 10:54:09;;;;;;;3.58;2.75;;;31.20;99.90;;;;;;5051414;28;20047;-78
2022/05/02 10:56:45;;;;;;;4.70;3.63;;;31.10;99.90;;;;;;5052621;28;20035;-78
2022/05/02 10:59:13;;;;;;;4.97;3.63;;;27.60;99.90;;;;;;5052542;28;20025;-78
2022/05/02 11:02:04;;;;;;;3.47;3.13;;;24.60;99.90;;;;;;5052903;28;20029;-77
2022/05/02 11:04:49;;;;;;;5.53;3.47;;;22.90;99.90;;;;;;5052295;28;20557;-77
2022/05/02 11:07:43;;;;;;;5.32;3.95;;;22.70;99.90;;;;;;5052516;28;20515;-78
2022/05/02 11:10:11;;;;;;;3.72;3.33;;;22.60;99.90;;;;;;5036362;28;20123;-77
2022/05/02 11:12:41;;;;;;;6.03;2.47;;;21.80;99.90;;;;;;5052129;28;20036;-78
2022/05/02 11:15:07;;;;;;;5.28;3.70;;;21.70;99.90;;;;;;5051658;28;20096;-78
2022/05/02 11:17:41;;;;;;;3.95;3.20;;;21.40;99.90;;;;;;5051304;28;20435;-78
2022/05/02 11:20:46;;;;;;;5.47;3.67;;;21.00;99.90;;;;;;5052008;28;20457;-77
2022/05/02 11:23:40;;;;;;;3.78;2.45;;;20.00;99.90;;;;;;5052426;28;20024;-77
2022/05/02 11:26:11;;;;;;;2.85;2.50;;;19.80;99.90;;;;;;5051795;28;20487;-77
2022/05/02 11:29:00;;;;;;;4.57;2.75;;;19.20;99.90;;;;;;5051843;28;20399;-78
2022/05/02 11:31:52;;;;;;;5.43;3.97;;;19.10;99.90;;;;;;5051911;28;20021;-77
2022/05/02 11:34:54;;;;;;;4.50;3.30;;;18.40;99.90;;;;;;5051906;28;20043;-78
2022/05/02 11:37:46;;;;;;;6.07;3.03;;;19.50;99.90;;;;;;5051778;28;20472;-77
2022/05/02 11:40:12;;;;;;;6.07;4.85;;;19.50;99.90;;;;;;5051544;28;20036;-77
2022/05/02 11:42:42;;;;;;;5.55;4.25;;;18.70;99.90;;;;;;5051547;28;20021;-77
2022/05/02 11:45:13;;;;;;;4.75;3.05;;;18.60;99.90;;;;;;5051807;28;20021;-77
2022/05/02 11:47:44;;;;;;;4.45;3.05;;;18.60;99.90;;;;;;5051779;28;20044;-77
2022/05/02 11:50:10;;;;;;;5.68;3.65;;;18.30;99.90;;;;;;5051561;28;20057;-77
2022/05/02 11:52:38;;;;;;;2.53;1.90;;;18.10;99.90;;;;;;5051637;28;20500;-78
2022/05/02 11:55:08;;;;;;;4.25;3.50;;;18.10;99.90;;;;;;5051544;28;20020;-77
2022/05/02 11:57:40;;;;;;;3.90;3.40;;;18.40;99.90;;;;;;5052112;28;20112;-77
2022/05/02 12:00:11;;;;;;;7.53;4.10;;;18.00;99.90;;;;;;5051731;28;20381;-77
2022/05/02 12:02:37;;;;;;;5.45;3.30;;;17.50;99.90;;;;;;5052179;28;20013;-77
2022/05/02 12:05:17;;;;;;;5.50;4.18;;;17.70;99.90;;;;;;5054548;28;20017;-77
2022/05/02 12:08:05;;;;;;;3.50;2.83;;;17.70;99.90;;;;;;5053596;28;20025;-77
2022/05/02 12:10:41;;;;;;;5.53;4.32;;;17.70;99.90;;;;;;4993161;28;20037;-78
2022/05/02 12:13:18;;;;;;;5.20;3.72;;;17.90;99.90;;;;;;5058154;28;20017;-78
2022/05/02 12:16:01;;;;;;;6.85;4.50;;;17.60;99.90;;;;;;5050874;28;20060;-77
2022/05/02 12:18:42;;;;;;;4.28;2.47;;;17.80;99.90;;;;;;5051469;28;20017;-77
2022/05/02 12:21:14;;;;;;;5.85;3.60;;;17.50;99.90;;;;;;5051678;28;20089;-77
2022/05/02 12:23:42;;;;;;;6.40;3.83;;;17.40;99.90;;;;;;5051333;28;20033;-76
2022/05/02 12:26:20;;;;;;;8.15;5.57;;;17.10;99.90;;;;;;5051054;28;20025;-77
2022/05/02 12:28:48;;;;;;;9.25;5.07;;;17.20;99.90;;;;;;5054093;28;20553;-77
2022/05/02 12:31:20;;;;;;;5.40;4.20;;;17.40;99.90;;;;;;5055066;28;20040;-78
2022/05/02 12:33:50;;;;;;;5.90;4.05;;;17.40;99.90;;;;;;5055473;28;20088;-77
2022/05/02 12:36:20;;;;;;;6.03;4.43;;;17.80;99.90;;;;;;5053872;28;20021;-77
2022/05/02 12:39:00;;;;;;;6.55;4.95;;;18.20;99.90;;;;;;5054996;28;20017;-77
2022/05/02 12:41:29;;;;;;;6.68;4.47;;;17.30;99.90;;;;;;5055478;28;20029;-77
2022/05/02 12:44:06;;;;;;;4.93;4.35;;;17.50;99.90;;;;;;5054848;28;20025;-78
2022/05/02 12:46:38;;;;;;;4.75;3.38;;;17.80;99.90;;;;;;5055146;28;20024;-78
2022/05/02 12:49:08;;;;;;;6.32;4.22;;;17.70;99.90;;;;;;5054913;28;20548;-78
2022/05/02 12:51:35;;;;;;;6.22;3.80;;;18.00;99.90;;;;;;5055165;28;20025;-78
2022/05/02 12:54:13;;;;;;;5.47;4.07;;;17.80;99.90;;;;;;5054775;28;20029;-78
2022/05/02 13:02:45;;;;;;;3.83;2.88;;;18.40;99.90;;;;;;5054832;28;20423;-77
2022/05/02 13:05:16;;;;;;;5.60;4.63;;;18.20;99.90;;;;;;5054601;28;20029;-77
2022/05/02 13:07:44;;;;;;;7.07;4.03;;;18.10;99.90;;;;;;5054503;28;20048;-77
2022/05/02 13:10:25;;;;;;;4.68;3.53;;;18.00;99.90;;;;;;5054396;28;20025;-77
2022/05/02 13:12:59;;;;;;;;;;;17.90;99.90;;;;;;5054795;28;20029;-78
2022/05/02 13:15:30;;;;;;;6.60;4.32;;;18.00;99.90;;;;;;5054163;28;19925;-77
2022/05/02 13:18:06;;;;;;;4.13;3.10;;;18.10;99.90;;;;;;5054373;28;20104;-77
2022/05/02 13:20:32;;;;;;;2.83;2.55;;;17.80;99.90;;;;;;5054424;28;20028;-77
2022/05/02 13:23:11;;;;;;;5.55;3.42;;;17.70;99.90;;;;;;5054986;28;20056;-77
2022/05/02 13:25:46;;;;;;;3.38;2.55;;;17.80;99.90;;;;;;5055278;28;20013;-77
2022/05/02 13:28:25;;;;;;;2.30;1.80;;;17.70;99.90;;;;;;5053955;28;20017;-77
2022/05/02 13:30:57;;;;;;;5.50;3.20;;;17.60;99.90;;;;;;5054204;28;20021;-77
2022/05/02 13:33:48;;;;;;;4.50;3.00;;;17.90;99.90;;;;;;5054003;28;20336;-77
2022/05/02 13:36:14;;;;;;;3.15;1.77;;;17.70;99.90;;;;;;5054102;28;20024;-77
2022/05/02 13:39:05;;;;;;;2.28;1.17;;;17.60;99.90;;;;;;5053446;28;20033;-77
2022/05/02 13:41:44;;;;;;;3.47;2.60;;;17.50;99.90;;;;;;5053822;28;20108;-77
2022/05/02 13:44:27;;;;;;;2.97;1.48;;;17.80;99.90;;;;;;5053793;28;20033;-77
2022/05/02 13:47:07;;;;;;;2.83;1.80;;;17.60;99.90;;;;;;5053798;28;20017;-77
2022/05/02 13:49:48;;;;;;;3.28;1.30;;;17.50;99.90;;;;;;5053513;28;20047;-77
2022/05/02 13:52:37;;;;;;;3.15;1.90;;;17.70;99.90;;;;;;5053585;28;20029;-77
2022/05/02 13:55:11;;;;;;;0.50;0.50;;;17.20;99.90;;;;;;5053592;28;20029;-77
2022/05/02 13:57:48;;;;;;;1.63;0.85;;;16.90;99.90;;;;;;5053612;28;20023;-77
2022/05/02 14:03:12;;;;;;;3.40;0.98;;;17.10;99.90;;;;;;5053741;28;20108;-77
2022/05/02 14:08:39;;;;;;;1.50;0.80;;;17.20;99.90;;;;;;5053064;28;20552;-77
2022/05/02 14:11:05;;;;;;;1.20;1.10;;;16.90;99.90;;;;;;5035845;28;20087;-77
2022/05/02 14:13:31;;;;;;;1.38;0.82;;;17.00;99.90;;;;;;5054614;28;20025;-77
2022/05/02 14:16:04;;;;;;;1.45;0.70;;;17.10;99.90;;;;;;5054881;28;20123;-77
2022/05/02 14:18:46;;;;;;;0.73;0.73;;;16.90;99.90;;;;;;5053674;28;20017;-77
2022/05/02 14:21:12;;;;;;;0.95;0.65;;;16.40;99.90;;;;;;5035487;28;20087;-77
2022/05/02 14:23:54;;;;;;;2.30;0.70;;;16.40;99.90;;;;;;5052962;28;20447;-77
2022/05/02 14:26:22;;;;;;;0.80;0.80;;;16.30;99.90;;;;;;5052928;28;20027;-77
2022/05/02 14:28:50;;;;;;;2.65;0.80;;;16.20;99.90;;;;;;5052820;28;20327;-77
2022/05/02 14:31:16;;;;;;;2.05;1.13;;;16.30;99.90;;;;;;5053322;28;20052;-77